sensor_id;sensor_type;location;lat;lon;timestamp;P1;durP1;ratioP1;P2;durP2;ratioP2
16478;SDS011;8350;52.316;10.530;2022-11-15T00:00:06;10.95;;;9.80;;
16478;SDS011;8350;52.316;10.530;2022-11-15T00:02:34;10.55;;;9.55;;
16478;SDS011;8350;52.316;10.530;2022-11-15T00:05:04;11.80;;;9.98;;
16478;SDS011;8350;52.316;10.530;2022-11-15T00:07:33;11.60;;;10.38;;
16478;SDS011;8350;52.316;10.530;2022-11-15T00:10:00;10.63;;;9.52;;
16478;SDS011;8350;52.316;10.530;2022-11-15T00:12:30;11.02;;;9.93;;
16478;SDS011;8350;52.316;10.530;2022-11-15T00:14:58;12.15;;;10.48;;
16478;SDS011;8350;52.316;10.530;2022-11-15T00:17:25;11.38;;;10.27;;
16478;SDS011;8350;52.316;10.530;2022-11-15T00:19:53;11.10;;;9.93;;
16478;SDS011;8350;52.316;10.530;2022-11-15T00:22:19;12.82;;;9.88;;
16478;SDS011;8350;52.316;10.530;2022-11-15T00:24:46;12.30;;;11.00;;
16478;SDS011;8350;52.316;10.530;2022-11-15T00:27:13;11.18;;;9.95;;
16478;SDS011;8350;52.316;10.530;2022-11-15T00:29:40;11.82;;;10.50;;
16478;SDS011;8350;52.316;10.530;2022-11-15T00:32:09;10.77;;;9.52;;
16478;SDS011;8350;52.316;10.530;2022-11-15T00:34:36;10.85;;;9.75;;
16478;SDS011;8350;52.316;10.530;2022-11-15T00:37:04;12.15;;;10.95;;
16478;SDS011;8350;52.316;10.530;2022-11-15T00:39:32;12.38;;;10.15;;
16478;SDS011;8350;52.316;10.530;2022-11-15T00:41:59;10.85;;;9.07;;
16478;SDS011;8350;52.316;10.530;2022-11-15T00:44:26;11.02;;;9.45;;
16478;SDS011;8350;52.316;10.530;2022-11-15T00:46:53;10.98;;;9.88;;
16478;SDS011;8350;52.316;10.530;2022-11-15T00:49:21;11.18;;;9.70;;
16478;SDS011;8350;52.316;10.530;2022-11-15T00:51:48;10.98;;;9.65;;
16478;SDS011;8350;52.316;10.530;2022-11-15T00:54:15;11.05;;;9.80;;
16478;SDS011;8350;52.316;10.530;2022-11-15T00:56:42;10.98;;;9.73;;
16478;SDS011;8350;52.316;10.530;2022-11-15T00:59:09;11.23;;;9.40;;
16478;SDS011;8350;52.316;10.530;2022-11-15T01:01:36;10.75;;;9.25;;
16478;SDS011;8350;52.316;10.530;2022-11-15T01:04:03;11.02;;;9.85;;
16478;SDS011;8350;52.316;10.530;2022-11-15T01:06:34;11.82;;;10.57;;
16478;SDS011;8350;52.316;10.530;2022-11-15T01:09:01;11.55;;;10.35;;
16478;SDS011;8350;52.316;10.530;2022-11-15T01:11:28;10.82;;;9.73;;
16478;SDS011;8350;52.316;10.530;2022-11-15T01:13:55;13.43;;;10.48;;
16478;SDS011;8350;52.316;10.530;2022-11-15T01:16:22;10.98;;;9.60;;
16478;SDS011;8350;52.316;10.530;2022-11-15T01:18:50;12.88;;;10.75;;
16478;SDS011;8350;52.316;10.530;2022-11-15T01:21:17;11.80;;;10.25;;
16478;SDS011;8350;52.316;10.530;2022-11-15T01:23:46;11.52;;;9.57;;
16478;SDS011;8350;52.316;10.530;2022-11-15T01:26:14;11.10;;;9.98;;
16478;SDS011;8350;52.316;10.530;2022-11-15T01:28:42;12.45;;;10.38;;
16478;SDS011;8350;52.316;10.530;2022-11-15T01:31:11;13.40;;;11.13;;
16478;SDS011;8350;52.316;10.530;2022-11-15T01:33:39;14.88;;;11.05;;
16478;SDS011;8350;52.316;10.530;2022-11-15T01:36:07;16.40;;;12.77;;
16478;SDS011;8350;52.316;10.530;2022-11-15T01:38:37;14.38;;;12.15;;
16478;SDS011;8350;52.316;10.530;2022-11-15T01:41:06;14.82;;;13.07;;
16478;SDS011;8350;52.316;10.530;2022-11-15T01:43:39;15.32;;;12.00;;
16478;SDS011;8350;52.316;10.530;2022-11-15T01:46:10;15.13;;;12.45;;
16478;SDS011;8350;52.316;10.530;2022-11-15T01:48:49;14.43;;;12.13;;
16478;SDS011;8350;52.316;10.530;2022-11-15T01:51:18;16.08;;;12.65;;
16478;SDS011;8350;52.316;10.530;2022-11-15T01:53:49;15.75;;;13.25;;
16478;SDS011;8350;52.316;10.530;2022-11-15T01:56:21;15.77;;;13.18;;
16478;SDS011;8350;52.316;10.530;2022-11-15T01:58:56;14.50;;;12.68;;
16478;SDS011;8350;52.316;10.530;2022-11-15T02:01:27;15.48;;;13.68;;
16478;SDS011;8350;52.316;10.530;2022-11-15T02:03:57;15.23;;;12.85;;
16478;SDS011;8350;52.316;10.530;2022-11-15T02:06:26;14.00;;;11.55;;
16478;SDS011;8350;52.316;10.530;2022-11-15T02:08:56;15.52;;;12.57;;
16478;SDS011;8350;52.316;10.530;2022-11-15T02:11:24;13.60;;;11.45;;
16478;SDS011;8350;52.316;10.530;2022-11-15T02:13:53;16.88;;;13.10;;
16478;SDS011;8350;52.316;10.530;2022-11-15T02:16:23;14.98;;;13.13;;
16478;SDS011;8350;52.316;10.530;2022-11-15T02:18:57;15.10;;;13.48;;
16478;SDS011;8350;52.316;10.530;2022-11-15T02:21:28;16.90;;;13.88;;
16478;SDS011;8350;52.316;10.530;2022-11-15T02:24:06;16.35;;;13.77;;
16478;SDS011;8350;52.316;10.530;2022-11-15T02:30:04;18.85;;;14.23;;
16478;SDS011;8350;52.316;10.530;2022-11-15T02:32:47;18.10;;;14.80;;
16478;SDS011;8350;52.316;10.530;2022-11-15T02:35:18;16.55;;;14.75;;
16478;SDS011;8350;52.316;10.530;2022-11-15T02:37:51;21.05;;;14.65;;
16478;SDS011;8350;52.316;10.530;2022-11-15T02:40:25;18.10;;;14.13;;
16478;SDS011;8350;52.316;10.530;2022-11-15T02:43:01;20.55;;;13.57;;
16478;SDS011;8350;52.316;10.530;2022-11-15T02:45:53;16.83;;;14.05;;
16478;SDS011;8350;52.316;10.530;2022-11-15T02:48:24;17.45;;;13.50;;
16478;SDS011;8350;52.316;10.530;2022-11-15T02:50:52;14.35;;;12.85;;
16478;SDS011;8350;52.316;10.530;2022-11-15T02:53:23;15.00;;;12.95;;
16478;SDS011;8350;52.316;10.530;2022-11-15T02:55:50;16.85;;;12.30;;
16478;SDS011;8350;52.316;10.530;2022-11-15T02:58:23;14.30;;;12.52;;
16478;SDS011;8350;52.316;10.530;2022-11-15T03:01:15;14.93;;;11.43;;
16478;SDS011;8350;52.316;10.530;2022-11-15T03:03:55;15.88;;;11.95;;
16478;SDS011;8350;52.316;10.530;2022-11-15T03:06:30;15.15;;;12.07;;
16478;SDS011;8350;52.316;10.530;2022-11-15T03:09:04;16.15;;;13.63;;
16478;SDS011;8350;52.316;10.530;2022-11-15T03:11:37;17.30;;;13.50;;
16478;SDS011;8350;52.316;10.530;2022-11-15T03:14:12;18.20;;;13.90;;
16478;SDS011;8350;52.316;10.530;2022-11-15T03:16:49;16.85;;;13.45;;
16478;SDS011;8350;52.316;10.530;2022-11-15T03:19:25;14.88;;;12.48;;
16478;SDS011;8350;52.316;10.530;2022-11-15T03:21:55;14.45;;;12.30;;
16478;SDS011;8350;52.316;10.530;2022-11-15T03:24:24;17.48;;;13.23;;
16478;SDS011;8350;52.316;10.530;2022-11-15T03:26:55;22.90;;;14.13;;
16478;SDS011;8350;52.316;10.530;2022-11-15T03:29:24;17.95;;;14.57;;
16478;SDS011;8350;52.316;10.530;2022-11-15T03:31:58;15.90;;;13.70;;
16478;SDS011;8350;52.316;10.530;2022-11-15T03:34:31;17.45;;;13.02;;
16478;SDS011;8350;52.316;10.530;2022-11-15T03:37:01;16.00;;;12.98;;
16478;SDS011;8350;52.316;10.530;2022-11-15T03:39:32;15.60;;;12.88;;
16478;SDS011;8350;52.316;10.530;2022-11-15T03:42:03;16.10;;;12.20;;
16478;SDS011;8350;52.316;10.530;2022-11-15T03:44:42;18.38;;;13.82;;
16478;SDS011;8350;52.316;10.530;2022-11-15T03:47:20;15.20;;;12.45;;
16478;SDS011;8350;52.316;10.530;2022-11-15T03:49:52;14.95;;;12.20;;
16478;SDS011;8350;52.316;10.530;2022-11-15T03:52:22;13.63;;;12.13;;
16478;SDS011;8350;52.316;10.530;2022-11-15T03:54:53;13.80;;;11.48;;
16478;SDS011;8350;52.316;10.530;2022-11-15T03:57:21;15.52;;;12.65;;
16478;SDS011;8350;52.316;10.530;2022-11-15T03:59:48;15.35;;;12.27;;
16478;SDS011;8350;52.316;10.530;2022-11-15T04:02:16;14.63;;;11.63;;
16478;SDS011;8350;52.316;10.530;2022-11-15T04:04:44;14.10;;;12.02;;
16478;SDS011;8350;52.316;10.530;2022-11-15T04:07:11;13.25;;;11.68;;
16478;SDS011;8350;52.316;10.530;2022-11-15T04:09:39;13.57;;;11.98;;
16478;SDS011;8350;52.316;10.530;2022-11-15T04:12:19;13.20;;;11.77;;
16478;SDS011;8350;52.316;10.530;2022-11-15T04:14:55;15.52;;;11.73;;
16478;SDS011;8350;52.316;10.530;2022-11-15T04:17:33;14.10;;;11.38;;
16478;SDS011;8350;52.316;10.530;2022-11-15T04:20:02;16.95;;;13.10;;
16478;SDS011;8350;52.316;10.530;2022-11-15T04:22:51;15.52;;;11.88;;
16478;SDS011;8350;52.316;10.530;2022-11-15T04:25:39;15.48;;;13.30;;
16478;SDS011;8350;52.316;10.530;2022-11-15T04:28:06;15.30;;;13.15;;
16478;SDS011;8350;52.316;10.530;2022-11-15T04:30:33;16.80;;;13.18;;
16478;SDS011;8350;52.316;10.530;2022-11-15T04:33:00;17.80;;;12.90;;
16478;SDS011;8350;52.316;10.530;2022-11-15T04:35:28;16.90;;;13.35;;
16478;SDS011;8350;52.316;10.530;2022-11-15T04:37:55;17.90;;;12.73;;
16478;SDS011;8350;52.316;10.530;2022-11-15T04:40:22;15.80;;;13.18;;
16478;SDS011;8350;52.316;10.530;2022-11-15T04:42:49;15.75;;;12.77;;
16478;SDS011;8350;52.316;10.530;2022-11-15T04:45:16;16.25;;;12.43;;
16478;SDS011;8350;52.316;10.530;2022-11-15T04:47:43;15.43;;;13.13;;
16478;SDS011;8350;52.316;10.530;2022-11-15T04:50:11;17.88;;;13.75;;
16478;SDS011;8350;52.316;10.530;2022-11-15T04:52:41;18.33;;;13.48;;
16478;SDS011;8350;52.316;10.530;2022-11-15T04:55:09;19.80;;;13.63;;
16478;SDS011;8350;52.316;10.530;2022-11-15T04:57:36;17.08;;;13.38;;
16478;SDS011;8350;52.316;10.530;2022-11-15T05:00:04;18.63;;;13.52;;
16478;SDS011;8350;52.316;10.530;2022-11-15T05:02:33;17.75;;;13.65;;
16478;SDS011;8350;52.316;10.530;2022-11-15T05:05:32;14.60;;;12.75;;
16478;SDS011;8350;52.316;10.530;2022-11-15T05:08:01;17.77;;;13.27;;
16478;SDS011;8350;52.316;10.530;2022-11-15T05:10:28;16.13;;;13.85;;
16478;SDS011;8350;52.316;10.530;2022-11-15T05:12:55;16.83;;;15.05;;
16478;SDS011;8350;52.316;10.530;2022-11-15T05:15:23;17.58;;;14.77;;
16478;SDS011;8350;52.316;10.530;2022-11-15T05:17:50;23.30;;;16.85;;
16478;SDS011;8350;52.316;10.530;2022-11-15T05:20:23;19.85;;;15.95;;
16478;SDS011;8350;52.316;10.530;2022-11-15T05:22:49;21.00;;;15.38;;
16478;SDS011;8350;52.316;10.530;2022-11-15T05:25:18;19.35;;;15.48;;
16478;SDS011;8350;52.316;10.530;2022-11-15T05:27:45;20.08;;;15.88;;
16478;SDS011;8350;52.316;10.530;2022-11-15T05:30:12;17.92;;;13.90;;
16478;SDS011;8350;52.316;10.530;2022-11-15T05:32:39;23.33;;;15.80;;
16478;SDS011;8350;52.316;10.530;2022-11-15T05:35:06;17.35;;;14.48;;
16478;SDS011;8350;52.316;10.530;2022-11-15T05:37:37;16.25;;;14.07;;
16478;SDS011;8350;52.316;10.530;2022-11-15T05:40:05;20.92;;;16.15;;
16478;SDS011;8350;52.316;10.530;2022-11-15T05:42:34;20.88;;;15.77;;
16478;SDS011;8350;52.316;10.530;2022-11-15T05:45:02;20.35;;;14.95;;
16478;SDS011;8350;52.316;10.530;2022-11-15T05:47:31;18.73;;;14.35;;
16478;SDS011;8350;52.316;10.530;2022-11-15T05:50:00;19.95;;;14.18;;
16478;SDS011;8350;52.316;10.530;2022-11-15T05:52:30;15.93;;;13.15;;
16478;SDS011;8350;52.316;10.530;2022-11-15T05:55:01;17.23;;;14.38;;
16478;SDS011;8350;52.316;10.530;2022-11-15T05:57:29;18.70;;;14.15;;
16478;SDS011;8350;52.316;10.530;2022-11-15T05:59:58;14.82;;;13.10;;
16478;SDS011;8350;52.316;10.530;2022-11-15T06:02:25;20.30;;;13.45;;
16478;SDS011;8350;52.316;10.530;2022-11-15T06:04:52;19.25;;;15.07;;
16478;SDS011;8350;52.316;10.530;2022-11-15T06:07:19;19.60;;;14.02;;
16478;SDS011;8350;52.316;10.530;2022-11-15T06:09:46;19.40;;;14.57;;
16478;SDS011;8350;52.316;10.530;2022-11-15T06:12:13;20.55;;;15.43;;
16478;SDS011;8350;52.316;10.530;2022-11-15T06:14:40;18.13;;;14.68;;
16478;SDS011;8350;52.316;10.530;2022-11-15T06:17:08;16.63;;;13.98;;
16478;SDS011;8350;52.316;10.530;2022-11-15T06:19:36;16.85;;;15.00;;
16478;SDS011;8350;52.316;10.530;2022-11-15T06:22:03;16.05;;;13.80;;
16478;SDS011;8350;52.316;10.530;2022-11-15T06:24:30;17.50;;;13.25;;
16478;SDS011;8350;52.316;10.530;2022-11-15T06:26:57;19.55;;;14.45;;
16478;SDS011;8350;52.316;10.530;2022-11-15T06:29:24;17.98;;;15.15;;
16478;SDS011;8350;52.316;10.530;2022-11-15T06:31:51;17.33;;;14.20;;
16478;SDS011;8350;52.316;10.530;2022-11-15T06:34:20;15.75;;;13.95;;
16478;SDS011;8350;52.316;10.530;2022-11-15T06:36:47;18.65;;;14.63;;
16478;SDS011;8350;52.316;10.530;2022-11-15T06:39:14;19.08;;;14.63;;
16478;SDS011;8350;52.316;10.530;2022-11-15T06:41:41;15.10;;;12.77;;
16478;SDS011;8350;52.316;10.530;2022-11-15T06:44:08;16.55;;;13.07;;
16478;SDS011;8350;52.316;10.530;2022-11-15T06:46:35;18.35;;;12.63;;
16478;SDS011;8350;52.316;10.530;2022-11-15T06:49:02;15.13;;;12.93;;
16478;SDS011;8350;52.316;10.530;2022-11-15T06:51:31;15.25;;;13.10;;
16478;SDS011;8350;52.316;10.530;2022-11-15T06:53:58;14.90;;;13.13;;
16478;SDS011;8350;52.316;10.530;2022-11-15T06:56:25;14.82;;;12.30;;
16478;SDS011;8350;52.316;10.530;2022-11-15T06:58:52;15.32;;;13.27;;
16478;SDS011;8350;52.316;10.530;2022-11-15T07:01:19;15.52;;;13.75;;
16478;SDS011;8350;52.316;10.530;2022-11-15T07:03:46;18.05;;;13.38;;
16478;SDS011;8350;52.316;10.530;2022-11-15T07:06:13;15.25;;;12.38;;
16478;SDS011;8350;52.316;10.530;2022-11-15T07:08:42;17.33;;;13.20;;
16478;SDS011;8350;52.316;10.530;2022-11-15T07:11:09;16.35;;;13.15;;
16478;SDS011;8350;52.316;10.530;2022-11-15T07:13:36;16.10;;;13.20;;
16478;SDS011;8350;52.316;10.530;2022-11-15T07:16:03;18.65;;;14.15;;
16478;SDS011;8350;52.316;10.530;2022-11-15T07:18:33;16.30;;;14.05;;
16478;SDS011;8350;52.316;10.530;2022-11-15T07:21:01;16.20;;;13.63;;
16478;SDS011;8350;52.316;10.530;2022-11-15T07:23:29;19.40;;;13.90;;
16478;SDS011;8350;52.316;10.530;2022-11-15T07:25:58;15.40;;;13.27;;
16478;SDS011;8350;52.316;10.530;2022-11-15T07:28:25;16.50;;;13.35;;
16478;SDS011;8350;52.316;10.530;2022-11-15T07:30:53;16.55;;;14.45;;
16478;SDS011;8350;52.316;10.530;2022-11-15T07:33:21;15.82;;;13.57;;
16478;SDS011;8350;52.316;10.530;2022-11-15T07:35:48;16.42;;;14.38;;
16478;SDS011;8350;52.316;10.530;2022-11-15T07:38:15;17.33;;;14.98;;
16478;SDS011;8350;52.316;10.530;2022-11-15T07:40:44;15.15;;;13.65;;
16478;SDS011;8350;52.316;10.530;2022-11-15T07:43:14;17.15;;;12.98;;
16478;SDS011;8350;52.316;10.530;2022-11-15T07:45:41;20.15;;;14.10;;
16478;SDS011;8350;52.316;10.530;2022-11-15T07:48:10;15.82;;;13.48;;
16478;SDS011;8350;52.316;10.530;2022-11-15T07:50:37;16.60;;;13.82;;
16478;SDS011;8350;52.316;10.530;2022-11-15T07:53:07;15.80;;;13.80;;
16478;SDS011;8350;52.316;10.530;2022-11-15T07:55:35;18.08;;;15.23;;
16478;SDS011;8350;52.316;10.530;2022-11-15T07:58:02;18.25;;;13.57;;
16478;SDS011;8350;52.316;10.530;2022-11-15T08:00:31;14.60;;;13.10;;
16478;SDS011;8350;52.316;10.530;2022-11-15T08:03:03;14.35;;;12.02;;
16478;SDS011;8350;52.316;10.530;2022-11-15T08:05:31;14.07;;;11.23;;
16478;SDS011;8350;52.316;10.530;2022-11-15T08:07:58;12.88;;;11.45;;
16478;SDS011;8350;52.316;10.530;2022-11-15T08:10:26;11.98;;;10.77;;
16478;SDS011;8350;52.316;10.530;2022-11-15T08:12:57;10.00;;;9.00;;
16478;SDS011;8350;52.316;10.530;2022-11-15T08:15:24;10.70;;;9.60;;
16478;SDS011;8350;52.316;10.530;2022-11-15T08:17:57;13.15;;;10.00;;
16478;SDS011;8350;52.316;10.530;2022-11-15T08:20:25;10.48;;;9.52;;
16478;SDS011;8350;52.316;10.530;2022-11-15T08:22:54;10.48;;;9.27;;
16478;SDS011;8350;52.316;10.530;2022-11-15T08:25:21;10.20;;;8.68;;
16478;SDS011;8350;52.316;10.530;2022-11-15T08:27:51;9.05;;;8.18;;
16478;SDS011;8350;52.316;10.530;2022-11-15T08:30:18;8.65;;;7.78;;
16478;SDS011;8350;52.316;10.530;2022-11-15T08:32:46;8.73;;;7.82;;
16478;SDS011;8350;52.316;10.530;2022-11-15T08:35:17;9.70;;;8.13;;
16478;SDS011;8350;52.316;10.530;2022-11-15T08:37:44;10.13;;;7.57;;
16478;SDS011;8350;52.316;10.530;2022-11-15T08:40:12;10.57;;;8.45;;
16478;SDS011;8350;52.316;10.530;2022-11-15T08:42:39;8.32;;;7.43;;
16478;SDS011;8350;52.316;10.530;2022-11-15T08:45:07;9.45;;;7.15;;
16478;SDS011;8350;52.316;10.530;2022-11-15T08:47:35;10.60;;;7.88;;
16478;SDS011;8350;52.316;10.530;2022-11-15T08:50:03;8.25;;;7.22;;
16478;SDS011;8350;52.316;10.530;2022-11-15T08:52:35;8.23;;;6.95;;
16478;SDS011;8350;52.316;10.530;2022-11-15T08:55:02;8.85;;;7.95;;
16478;SDS011;8350;52.316;10.530;2022-11-15T08:57:30;8.93;;;8.10;;
16478;SDS011;8350;52.316;10.530;2022-11-15T08:59:57;9.15;;;8.10;;
16478;SDS011;8350;52.316;10.530;2022-11-15T09:02:24;7.95;;;7.20;;
16478;SDS011;8350;52.316;10.530;2022-11-15T09:04:51;10.90;;;7.57;;
16478;SDS011;8350;52.316;10.530;2022-11-15T09:07:18;8.95;;;6.75;;
16478;SDS011;8350;52.316;10.530;2022-11-15T09:09:47;8.57;;;7.78;;
16478;SDS011;8350;52.316;10.530;2022-11-15T09:12:14;7.85;;;7.07;;
16478;SDS011;8350;52.316;10.530;2022-11-15T09:14:41;8.27;;;6.72;;
16478;SDS011;8350;52.316;10.530;2022-11-15T09:17:08;10.13;;;7.35;;
16478;SDS011;8350;52.316;10.530;2022-11-15T09:19:37;6.88;;;6.05;;
16478;SDS011;8350;52.316;10.530;2022-11-15T09:22:05;9.77;;;7.05;;
16478;SDS011;8350;52.316;10.530;2022-11-15T09:24:33;7.05;;;6.35;;
16478;SDS011;8350;52.316;10.530;2022-11-15T09:27:01;7.45;;;6.50;;
16478;SDS011;8350;52.316;10.530;2022-11-15T09:29:29;8.35;;;7.25;;
16478;SDS011;8350;52.316;10.530;2022-11-15T09:31:56;7.47;;;6.70;;
16478;SDS011;8350;52.316;10.530;2022-11-15T09:34:23;7.43;;;6.57;;
16478;SDS011;8350;52.316;10.530;2022-11-15T09:36:50;8.73;;;6.97;;
16478;SDS011;8350;52.316;10.530;2022-11-15T09:39:17;7.63;;;6.82;;
16478;SDS011;8350;52.316;10.530;2022-11-15T09:41:51;8.82;;;6.70;;
16478;SDS011;8350;52.316;10.530;2022-11-15T09:47:33;7.07;;;6.38;;
16478;SDS011;8350;52.316;10.530;2022-11-15T09:53:03;8.38;;;6.18;;
16478;SDS011;8350;52.316;10.530;2022-11-15T09:55:36;8.20;;;5.70;;
16478;SDS011;8350;52.316;10.530;2022-11-15T09:58:22;6.78;;;6.00;;
16478;SDS011;8350;52.316;10.530;2022-11-15T10:00:55;5.82;;;5.10;;
16478;SDS011;8350;52.316;10.530;2022-11-15T10:03:30;7.68;;;5.38;;
16478;SDS011;8350;52.316;10.530;2022-11-15T10:06:09;6.40;;;5.72;;
16478;SDS011;8350;52.316;10.530;2022-11-15T10:08:55;6.65;;;5.30;;
16478;SDS011;8350;52.316;10.530;2022-11-15T10:11:29;6.57;;;5.97;;
16478;SDS011;8350;52.316;10.530;2022-11-15T10:13:59;6.75;;;5.18;;
16478;SDS011;8350;52.316;10.530;2022-11-15T10:16:40;6.88;;;5.40;;
16478;SDS011;8350;52.316;10.530;2022-11-15T10:19:33;7.40;;;5.20;;
16478;SDS011;8350;52.316;10.530;2022-11-15T10:22:14;5.88;;;5.28;;
16478;SDS011;8350;52.316;10.530;2022-11-15T10:24:52;9.80;;;5.70;;
16478;SDS011;8350;52.316;10.530;2022-11-15T10:27:27;7.43;;;5.00;;
16478;SDS011;8350;52.316;10.530;2022-11-15T10:29:56;6.18;;;4.63;;
16478;SDS011;8350;52.316;10.530;2022-11-15T10:32:24;6.45;;;5.28;;
16478;SDS011;8350;52.316;10.530;2022-11-15T10:34:52;5.18;;;4.70;;
16478;SDS011;8350;52.316;10.530;2022-11-15T10:37:27;5.93;;;4.95;;
16478;SDS011;8350;52.316;10.530;2022-11-15T10:40:05;7.70;;;5.03;;
16478;SDS011;8350;52.316;10.530;2022-11-15T10:42:40;7.10;;;4.63;;
16478;SDS011;8350;52.316;10.530;2022-11-15T10:45:22;5.38;;;4.40;;
16478;SDS011;8350;52.316;10.530;2022-11-15T10:47:52;4.45;;;4.03;;
16478;SDS011;8350;52.316;10.530;2022-11-15T10:50:26;5.38;;;4.63;;
16478;SDS011;8350;52.316;10.530;2022-11-15T10:52:55;8.93;;;4.20;;
16478;SDS011;8350;52.316;10.530;2022-11-15T10:55:27;5.32;;;4.13;;
16478;SDS011;8350;52.316;10.530;2022-11-15T10:58:00;4.38;;;3.65;;
16478;SDS011;8350;52.316;10.530;2022-11-15T11:00:33;6.45;;;4.28;;
16478;SDS011;8350;52.316;10.530;2022-11-15T11:03:06;4.75;;;4.22;;
16478;SDS011;8350;52.316;10.530;2022-11-15T11:06:03;5.88;;;3.97;;
16478;SDS011;8350;52.316;10.530;2022-11-15T11:08:36;4.68;;;3.92;;
16478;SDS011;8350;52.316;10.530;2022-11-15T11:11:09;3.97;;;3.58;;
16478;SDS011;8350;52.316;10.530;2022-11-15T11:13:36;5.47;;;4.30;;
16478;SDS011;8350;52.316;10.530;2022-11-15T11:16:14;4.32;;;3.92;;
16478;SDS011;8350;52.316;10.530;2022-11-15T11:19:02;4.43;;;3.97;;
16478;SDS011;8350;52.316;10.530;2022-11-15T11:21:39;5.18;;;3.90;;
16478;SDS011;8350;52.316;10.530;2022-11-15T11:24:15;3.72;;;3.38;;
16478;SDS011;8350;52.316;10.530;2022-11-15T11:26:54;5.32;;;4.07;;
16478;SDS011;8350;52.316;10.530;2022-11-15T11:29:33;4.43;;;3.67;;
16478;SDS011;8350;52.316;10.530;2022-11-15T11:32:15;5.55;;;3.42;;
16478;SDS011;8350;52.316;10.530;2022-11-15T11:34:58;3.85;;;3.20;;
16478;SDS011;8350;52.316;10.530;2022-11-15T11:37:35;3.85;;;3.53;;
16478;SDS011;8350;52.316;10.530;2022-11-15T11:40:12;4.50;;;3.38;;
16478;SDS011;8350;52.316;10.530;2022-11-15T11:42:49;5.05;;;3.28;;
16478;SDS011;8350;52.316;10.530;2022-11-15T11:45:25;4.28;;;3.35;;
16478;SDS011;8350;52.316;10.530;2022-11-15T11:48:07;6.68;;;4.00;;
16478;SDS011;8350;52.316;10.530;2022-11-15T11:50:40;5.15;;;4.07;;
16478;SDS011;8350;52.316;10.530;2022-11-15T11:53:12;6.95;;;3.92;;
16478;SDS011;8350;52.316;10.530;2022-11-15T11:55:45;8.00;;;4.20;;
16478;SDS011;8350;52.316;10.530;2022-11-15T11:58:19;5.43;;;3.47;;
16478;SDS011;8350;52.316;10.530;2022-11-15T12:00:49;5.20;;;3.50;;
16478;SDS011;8350;52.316;10.530;2022-11-15T12:03:21;4.97;;;3.17;;
16478;SDS011;8350;52.316;10.530;2022-11-15T12:05:56;4.20;;;3.30;;
16478;SDS011;8350;52.316;10.530;2022-11-15T12:08:29;5.10;;;3.60;;
16478;SDS011;8350;52.316;10.530;2022-11-15T12:11:04;4.85;;;3.75;;
16478;SDS011;8350;52.316;10.530;2022-11-15T12:13:36;4.72;;;3.75;;
16478;SDS011;8350;52.316;10.530;2022-11-15T12:16:06;3.63;;;3.33;;
16478;SDS011;8350;52.316;10.530;2022-11-15T12:18:38;5.28;;;3.40;;
16478;SDS011;8350;52.316;10.530;2022-11-15T12:21:13;3.95;;;3.58;;
16478;SDS011;8350;52.316;10.530;2022-11-15T12:23:43;4.35;;;3.38;;
16478;SDS011;8350;52.316;10.530;2022-11-15T12:26:16;5.28;;;3.72;;
16478;SDS011;8350;52.316;10.530;2022-11-15T12:28:47;4.90;;;3.83;;
16478;SDS011;8350;52.316;10.530;2022-11-15T12:31:21;3.92;;;3.55;;
16478;SDS011;8350;52.316;10.530;2022-11-15T12:33:56;4.85;;;3.20;;
16478;SDS011;8350;52.316;10.530;2022-11-15T12:36:36;4.03;;;3.20;;
16478;SDS011;8350;52.316;10.530;2022-11-15T12:39:06;6.72;;;3.58;;
16478;SDS011;8350;52.316;10.530;2022-11-15T12:41:35;3.65;;;3.35;;
16478;SDS011;8350;52.316;10.530;2022-11-15T12:44:03;5.95;;;4.07;;
16478;SDS011;8350;52.316;10.530;2022-11-15T12:52:15;4.07;;;3.67;;
16478;SDS011;8350;52.316;10.530;2022-11-15T12:54:59;4.38;;;4.00;;
16478;SDS011;8350;52.316;10.530;2022-11-15T12:57:32;5.18;;;3.78;;
16478;SDS011;8350;52.316;10.530;2022-11-15T13:03:20;8.18;;;3.95;;
16478;SDS011;8350;52.316;10.530;2022-11-15T13:05:58;4.75;;;3.72;;
16478;SDS011;8350;52.316;10.530;2022-11-15T13:08:49;5.32;;;3.45;;
16478;SDS011;8350;52.316;10.530;2022-11-15T13:17:20;4.93;;;3.60;;
16478;SDS011;8350;52.316;10.530;2022-11-15T13:20:07;5.63;;;4.30;;
16478;SDS011;8350;52.316;10.530;2022-11-15T13:22:46;6.68;;;3.72;;
16478;SDS011;8350;52.316;10.530;2022-11-15T13:25:24;5.72;;;4.53;;
16478;SDS011;8350;52.316;10.530;2022-11-15T13:28:09;5.60;;;3.53;;
16478;SDS011;8350;52.316;10.530;2022-11-15T13:30:48;3.85;;;3.55;;
16478;SDS011;8350;52.316;10.530;2022-11-15T13:33:17;4.00;;;3.50;;
16478;SDS011;8350;52.316;10.530;2022-11-15T13:35:48;4.25;;;3.85;;
16478;SDS011;8350;52.316;10.530;2022-11-15T13:38:19;5.80;;;3.92;;
16478;SDS011;8350;52.316;10.530;2022-11-15T13:40:54;5.78;;;3.60;;
16478;SDS011;8350;52.316;10.530;2022-11-15T13:43:29;5.20;;;3.67;;
16478;SDS011;8350;52.316;10.530;2022-11-15T13:46:04;5.43;;;3.72;;
16478;SDS011;8350;52.316;10.530;2022-11-15T13:48:32;14.88;;;4.82;;
16478;SDS011;8350;52.316;10.530;2022-11-15T13:51:00;6.70;;;3.80;;
16478;SDS011;8350;52.316;10.530;2022-11-15T13:53:33;4.18;;;3.60;;
16478;SDS011;8350;52.316;10.530;2022-11-15T13:56:04;5.05;;;3.70;;
16478;SDS011;8350;52.316;10.530;2022-11-15T13:58:32;5.65;;;3.38;;
16478;SDS011;8350;52.316;10.530;2022-11-15T14:00:59;5.05;;;3.85;;
16478;SDS011;8350;52.316;10.530;2022-11-15T14:03:31;5.88;;;3.60;;
16478;SDS011;8350;52.316;10.530;2022-11-15T14:06:03;5.72;;;3.60;;
16478;SDS011;8350;52.316;10.530;2022-11-15T14:08:33;4.28;;;3.40;;
16478;SDS011;8350;52.316;10.530;2022-11-15T14:11:09;5.68;;;4.00;;
16478;SDS011;8350;52.316;10.530;2022-11-15T14:13:41;5.18;;;3.72;;
16478;SDS011;8350;52.316;10.530;2022-11-15T14:16:12;5.30;;;3.45;;
16478;SDS011;8350;52.316;10.530;2022-11-15T14:18:41;4.95;;;3.30;;
16478;SDS011;8350;52.316;10.530;2022-11-15T14:21:10;5.40;;;3.40;;
16478;SDS011;8350;52.316;10.530;2022-11-15T14:23:37;4.32;;;3.72;;
16478;SDS011;8350;52.316;10.530;2022-11-15T14:26:04;4.95;;;3.47;;
16478;SDS011;8350;52.316;10.530;2022-11-15T14:28:35;4.70;;;3.63;;
16478;SDS011;8350;52.316;10.530;2022-11-15T14:31:06;4.15;;;3.75;;
16478;SDS011;8350;52.316;10.530;2022-11-15T14:33:38;4.53;;;3.83;;
16478;SDS011;8350;52.316;10.530;2022-11-15T14:36:06;6.05;;;3.58;;
16478;SDS011;8350;52.316;10.530;2022-11-15T14:38:38;4.05;;;3.65;;
16478;SDS011;8350;52.316;10.530;2022-11-15T14:41:10;4.72;;;4.10;;
16478;SDS011;8350;52.316;10.530;2022-11-15T14:43:47;4.22;;;3.83;;
16478;SDS011;8350;52.316;10.530;2022-11-15T14:46:14;6.40;;;4.38;;
16478;SDS011;8350;52.316;10.530;2022-11-15T14:48:42;6.70;;;3.80;;
16478;SDS011;8350;52.316;10.530;2022-11-15T14:51:12;5.15;;;4.65;;
16478;SDS011;8350;52.316;10.530;2022-11-15T14:53:40;5.88;;;4.05;;
16478;SDS011;8350;52.316;10.530;2022-11-15T14:56:07;4.75;;;4.20;;
16478;SDS011;8350;52.316;10.530;2022-11-15T14:58:35;3.97;;;3.58;;
16478;SDS011;8350;52.316;10.530;2022-11-15T15:01:05;4.90;;;4.32;;
16478;SDS011;8350;52.316;10.530;2022-11-15T15:03:42;4.80;;;4.10;;
16478;SDS011;8350;52.316;10.530;2022-11-15T15:06:10;5.85;;;4.82;;
16478;SDS011;8350;52.316;10.530;2022-11-15T15:08:38;5.53;;;4.47;;
16478;SDS011;8350;52.316;10.530;2022-11-15T15:11:07;5.15;;;4.57;;
16478;SDS011;8350;52.316;10.530;2022-11-15T15:13:40;5.53;;;4.28;;
16478;SDS011;8350;52.316;10.530;2022-11-15T15:16:09;6.70;;;4.78;;
16478;SDS011;8350;52.316;10.530;2022-11-15T15:18:37;4.90;;;4.47;;